createdAt,value
2023-02-05T00:01:35.427Z,3.28
2023-02-05T00:04:02.294Z,3.40
2023-02-05T00:06:30.901Z,2.97
2023-02-05T00:09:06.324Z,2.90
2023-02-05T00:11:33.265Z,3.30
2023-02-05T00:14:08.507Z,3.80
2023-02-05T00:16:38.181Z,4.03
2023-02-05T00:19:05.078Z,3.30
2023-02-05T00:21:32.293Z,3.50
2023-02-05T00:24:13.309Z,3.30
2023-02-05T00:26:41.512Z,3.15
2023-02-05T00:29:11.235Z,3.20
2023-02-05T00:31:40.410Z,3.45
2023-02-05T00:36:54.731Z,3.13
2023-02-05T00:39:23.851Z,3.17
2023-02-05T00:41:56.399Z,3.40
2023-02-05T00:47:08.080Z,3.75
2023-02-05T00:49:43.185Z,3.25
2023-02-05T00:52:10.239Z,3.70
2023-02-05T00:54:40.175Z,3.15
2023-02-05T00:57:13.864Z,3.13
2023-02-05T00:59:55.579Z,3.30
2023-02-05T01:02:24.460Z,2.92
2023-02-05T01:04:53.127Z,3.15
2023-02-05T01:07:23.520Z,3.42
2023-02-05T01:09:53.219Z,3.22
2023-02-05T01:12:21.195Z,3.17
2023-02-05T01:14:58.834Z,3.33
2023-02-05T01:17:25.628Z,3.53
2023-02-05T01:19:55.591Z,3.38
2023-02-05T01:22:29.561Z,3.40
2023-02-05T01:24:56.345Z,3.30
2023-02-05T01:27:47.690Z,2.47
2023-02-05T01:30:20.968Z,3.70
2023-02-05T01:32:47.806Z,2.90
2023-02-05T01:35:19.024Z,2.95
2023-02-05T01:37:45.894Z,3.38
2023-02-05T01:40:15.946Z,3.15
2023-02-05T01:42:48.833Z,3.67
2023-02-05T01:45:41.619Z,3.00
2023-02-05T01:48:09.708Z,3.35
2023-02-05T01:50:48.208Z,2.95
2023-02-05T01:53:35.426Z,3.58
2023-02-05T01:56:10.461Z,3.10
2023-02-05T01:59:07.508Z,3.42
2023-02-05T02:01:37.737Z,3.20
2023-02-05T02:04:05.309Z,2.97
2023-02-05T02:06:37.092Z,3.35
2023-02-05T02:11:58.348Z,3.03
2023-02-05T02:14:34.994Z,2.90
2023-02-05T02:17:03.964Z,3.40
2023-02-05T02:19:46.011Z,3.00
2023-02-05T02:22:35.355Z,3.63
2023-02-05T02:25:20.581Z,3.40
2023-02-05T02:27:57.387Z,3.58
2023-02-05T02:30:37.219Z,3.13
2023-02-05T02:33:24.111Z,2.70
2023-02-05T02:36:23.364Z,3.20
2023-02-05T02:39:38.227Z,3.75
2023-02-05T02:42:11.434Z,4.03
2023-02-05T02:44:53.619Z,4.00
2023-02-05T02:47:38.658Z,3.88
2023-02-05T02:50:27.485Z,4.57
2023-02-05T02:52:56.963Z,3.30
2023-02-05T02:55:31.651Z,4.05
2023-02-05T02:58:10.662Z,4.30
2023-02-05T03:00:43.666Z,3.38
2023-02-05T03:03:13.968Z,3.58
2023-02-05T03:05:43.362Z,3.67
2023-02-05T03:08:34.996Z,3.95
2023-02-05T03:11:22.083Z,3.33
2023-02-05T03:13:49.301Z,3.67
2023-02-05T03:16:27.337Z,3.28
2023-02-05T03:18:56.609Z,4.28
2023-02-05T03:21:32.217Z,3.53
2023-02-05T03:24:00.677Z,3.97
2023-02-05T03:26:35.216Z,3.55
2023-02-05T03:29:14.942Z,4.32
2023-02-05T03:31:53.774Z,3.97
2023-02-05T03:34:36.951Z,3.63
2023-02-05T03:37:36.754Z,4.07
2023-02-05T03:40:19.277Z,4.47
2023-02-05T03:43:12.283Z,3.40
2023-02-05T03:46:09.835Z,3.72
2023-02-05T03:48:55.106Z,3.95
2023-02-05T03:51:46.576Z,3.83
2023-02-05T03:54:43.071Z,4.28
2023-02-05T03:57:38.513Z,4.00
2023-02-05T04:00:09.246Z,3.65
2023-02-05T04:02:37.394Z,3.75
2023-02-05T04:05:13.050Z,3.70
2023-02-05T04:07:45.817Z,4.05
2023-02-05T04:10:12.577Z,3.75
2023-02-05T04:12:48.480Z,4.03
2023-02-05T04:15:16.607Z,4.47
2023-02-05T04:17:43.489Z,4.40
2023-02-05T04:20:13.438Z,4.53
2023-02-05T04:22:44.990Z,3.30
2023-02-05T04:25:11.828Z,3.50
2023-02-05T04:27:39.092Z,4.18
2023-02-05T04:30:07.035Z,3.67
2023-02-05T04:32:37.334Z,4.10
2023-02-05T04:35:10.501Z,4.07
2023-02-05T04:37:37.448Z,4.32
2023-02-05T04:40:40.733Z,4.00
2023-02-05T04:43:07.827Z,3.70
2023-02-05T04:45:36.926Z,3.90
2023-02-05T04:48:06.802Z,3.65
2023-02-05T04:50:33.706Z,3.88
2023-02-05T04:53:02.381Z,4.15
2023-02-05T04:55:38.590Z,3.75
2023-02-05T04:58:17.921Z,3.55
2023-02-05T05:00:57.207Z,3.97
2023-02-05T05:03:31.701Z,3.85
2023-02-05T05:06:05.161Z,3.92
2023-02-05T05:08:47.697Z,4.30
2023-02-05T05:11:45.147Z,3.65
2023-02-05T05:14:24.585Z,3.80
2023-02-05T05:16:51.505Z,4.22
2023-02-05T05:19:21.314Z,3.95
2023-02-05T05:21:57.338Z,4.57
2023-02-05T05:24:27.460Z,4.03
2023-02-05T05:26:59.918Z,4.30
2023-02-05T05:29:39.614Z,3.70
2023-02-05T05:32:09.519Z,3.63
2023-02-05T05:34:36.771Z,3.72
2023-02-05T05:37:07.800Z,3.50
2023-02-05T05:39:57.028Z,3.97
2023-02-05T05:42:45.144Z,3.63
2023-02-05T05:45:15.121Z,3.97
2023-02-05T05:47:45.163Z,4.47
2023-02-05T05:50:15.034Z,4.22
2023-02-05T05:52:50.081Z,3.92
2023-02-05T05:55:19.384Z,3.88
2023-02-05T05:57:47.139Z,3.80
2023-02-05T06:00:14.882Z,3.78
2023-02-05T06:02:41.947Z,3.58
2023-02-05T06:05:08.990Z,3.53
2023-02-05T06:07:38.588Z,4.15
2023-02-05T06:10:10.306Z,3.78
2023-02-05T06:12:46.174Z,3.30
2023-02-05T06:15:23.312Z,3.83
2023-02-05T06:17:59.203Z,3.88
2023-02-05T06:20:26.070Z,3.92
2023-02-05T06:22:53.135Z,4.50
2023-02-05T06:25:20.278Z,4.40
2023-02-05T06:27:47.476Z,4.75
2023-02-05T06:30:18.659Z,6.70
2023-02-05T06:32:55.333Z,6.03
2023-02-05T06:35:34.398Z,5.88
2023-02-05T06:38:10.379Z,5.93
2023-02-05T06:40:49.762Z,6.13
2023-02-05T06:43:19.083Z,5.97
2023-02-05T06:45:48.259Z,5.38
2023-02-05T06:48:18.082Z,5.70
2023-02-05T06:50:47.916Z,5.25
2023-02-05T06:53:23.562Z,4.95
2023-02-05T06:55:57.130Z,5.38
2023-02-05T06:58:24.212Z,5.63
2023-02-05T07:00:57.334Z,5.30
2023-02-05T07:03:24.534Z,3.90
2023-02-05T07:05:53.839Z,4.07
2023-02-05T07:08:24.526Z,3.22
2023-02-05T07:11:04.464Z,4.25
2023-02-05T07:13:44.677Z,4.03
2023-02-05T07:16:16.591Z,4.13
2023-02-05T07:24:22.960Z,3.78
2023-02-05T07:27:11.014Z,4.05
2023-02-05T07:29:40.808Z,4.20
2023-02-05T07:32:13.117Z,4.00
2023-02-05T07:34:54.753Z,4.35
2023-02-05T07:37:25.435Z,3.70
2023-02-05T07:39:53.124Z,4.28
2023-02-05T07:42:20.029Z,3.60
2023-02-05T07:44:46.864Z,3.55
2023-02-05T07:48:03.190Z,4.38
2023-02-05T07:50:42.416Z,3.65
2023-02-05T07:53:14.018Z,3.30
2023-02-05T07:55:59.729Z,2.97
2023-02-05T07:58:26.714Z,3.08
2023-02-05T08:01:02.984Z,2.50
2023-02-05T08:03:32.044Z,2.55
2023-02-05T08:06:05.544Z,3.13
2023-02-05T08:08:35.376Z,2.72
2023-02-05T08:11:07.006Z,2.70
2023-02-05T08:13:34.772Z,2.60
2023-02-05T08:16:08.168Z,2.13
2023-02-05T08:18:35.233Z,2.60
2023-02-05T08:21:07.969Z,2.40
2023-02-05T08:23:43.406Z,2.35
2023-02-05T08:26:21.004Z,2.35
2023-02-05T08:28:52.764Z,2.55
2023-02-05T08:31:20.495Z,2.28
2023-02-05T08:33:50.902Z,2.40
2023-02-05T08:36:27.233Z,2.30
2023-02-05T08:38:55.498Z,2.55
2023-02-05T08:41:25.624Z,2.00
2023-02-05T08:43:52.640Z,2.20
2023-02-05T08:46:40.178Z,2.10
2023-02-05T08:49:27.822Z,2.22
2023-02-05T08:57:39.370Z,1.80
2023-02-05T09:00:07.991Z,2.05
2023-02-05T09:02:42.038Z,2.15
2023-02-05T09:05:09.864Z,1.75
2023-02-05T09:07:44.707Z,2.10
2023-02-05T09:10:20.237Z,2.00
2023-02-05T09:12:48.991Z,1.90
2023-02-05T09:15:16.834Z,1.88
2023-02-05T09:17:47.966Z,2.40
2023-02-05T09:20:18.286Z,2.08
2023-02-05T09:22:57.964Z,1.80
2023-02-05T09:25:34.474Z,1.98
2023-02-05T09:28:11.843Z,1.83
2023-02-05T09:31:05.751Z,1.77
2023-02-05T09:33:46.514Z,2.00
2023-02-05T09:36:29.442Z,1.90
2023-02-05T09:39:34.612Z,2.28
2023-02-05T09:42:27.887Z,2.70
2023-02-05T09:45:10.088Z,2.35
2023-02-05T09:47:52.036Z,2.03
2023-02-05T09:50:41.874Z,2.33
2023-02-05T09:53:19.470Z,2.67
2023-02-05T09:55:47.852Z,2.30
2023-02-05T09:58:38.210Z,2.15
2023-02-05T10:01:14.883Z,2.33
2023-02-05T10:03:47.296Z,2.65
2023-02-05T10:06:21.442Z,2.25
2023-02-05T10:09:06.843Z,1.88
2023-02-05T10:12:13.874Z,2.30
2023-02-05T10:15:24.518Z,1.70
2023-02-05T10:18:29.098Z,2.20
2023-02-05T10:21:20.409Z,2.00
2023-02-05T10:24:10.922Z,2.30
2023-02-05T10:26:57.625Z,1.90
2023-02-05T10:29:31.513Z,2.10
2023-02-05T10:32:11.975Z,2.30
2023-02-05T10:34:58.224Z,2.03
2023-02-05T10:38:04.618Z,1.95
2023-02-05T10:40:39.442Z,2.20
2023-02-05T10:43:30.083Z,2.03
2023-02-05T10:46:01.470Z,2.20
2023-02-05T10:49:13.859Z,2.40
2023-02-05T10:51:47.496Z,2.20
2023-02-05T10:54:41.934Z,1.98
2023-02-05T10:57:29.769Z,2.28
2023-02-05T11:00:15.826Z,2.10
2023-02-05T11:02:50.515Z,2.20
2023-02-05T11:05:20.552Z,2.55
2023-02-05T11:07:57.562Z,2.25
2023-02-05T11:10:29.751Z,2.00
2023-02-05T11:13:22.135Z,2.17
2023-02-05T11:16:09.304Z,1.83
2023-02-05T11:18:45.968Z,2.60
2023-02-05T11:24:02.165Z,1.85
2023-02-05T11:26:43.381Z,2.30
2023-02-05T11:29:40.259Z,2.25
2023-02-05T11:32:41.470Z,2.47
2023-02-05T11:35:34.292Z,2.28
2023-02-05T11:38:29.962Z,2.25
2023-02-05T11:41:08.060Z,2.10
2023-02-05T11:43:39.326Z,2.13
2023-02-05T11:46:20.237Z,1.98
2023-02-05T11:48:58.933Z,2.13
2023-02-05T11:51:35.041Z,2.15
2023-02-05T11:54:21.490Z,2.50
2023-02-05T11:57:29.017Z,2.15
2023-02-05T11:59:58.350Z,2.15
2023-02-05T12:02:31.242Z,2.15
2023-02-05T12:05:04.456Z,2.33
2023-02-05T12:08:14.693Z,2.42
2023-02-05T12:11:08.761Z,2.45
2023-02-05T12:13:54.291Z,2.58
2023-02-05T12:16:33.534Z,2.50
2023-02-05T12:19:14.993Z,2.42
2023-02-05T12:21:55.066Z,2.08
2023-02-05T12:24:43.645Z,2.17
2023-02-05T12:27:50.187Z,2.80
2023-02-05T12:30:38.285Z,2.35
2023-02-05T12:33:51.971Z,2.42
2023-02-05T12:36:48.388Z,2.58
2023-02-05T12:39:31.700Z,2.28
2023-02-05T12:42:18.296Z,1.80
2023-02-05T12:44:54.067Z,2.22
2023-02-05T12:47:55.999Z,2.50
2023-02-05T12:51:12.013Z,2.80
2023-02-05T12:53:58.342Z,2.55
2023-02-05T12:56:37.209Z,2.85
2023-02-05T12:59:11.996Z,2.10
2023-02-05T13:01:51.454Z,2.42
2023-02-05T13:04:41.455Z,2.55
2023-02-05T13:07:22.994Z,2.63
2023-02-05T13:10:24.380Z,2.30
2023-02-05T13:13:11.895Z,2.88
2023-02-05T13:16:03.348Z,2.30
2023-02-05T13:18:39.708Z,2.40
2023-02-05T13:21:40.461Z,2.53
2023-02-05T13:24:48.413Z,2.40
2023-02-05T13:27:52.811Z,2.50
2023-02-05T13:30:40.917Z,2.15
2023-02-05T13:33:17.302Z,2.17
2023-02-05T13:36:24.722Z,2.38
2023-02-05T13:39:49.719Z,2.10
2023-02-05T13:43:04.352Z,2.30
2023-02-05T13:46:12.094Z,2.63
2023-02-05T13:49:00.282Z,2.45
2023-02-05T13:51:46.161Z,2.10
2023-02-05T13:54:27.969Z,2.30
2023-02-05T13:56:57.625Z,2.30
2023-02-05T13:59:43.914Z,2.20
2023-02-05T14:02:48.089Z,2.40
2023-02-05T14:05:33.509Z,2.20
2023-02-05T14:08:03.828Z,2.28
2023-02-05T14:10:55.938Z,2.53
2023-02-05T14:13:34.797Z,2.20
2023-02-05T14:16:27.009Z,2.58
2023-02-05T14:19:03.030Z,2.05
2023-02-05T14:21:39.596Z,2.15
2023-02-05T14:24:40.624Z,1.90
2023-02-05T14:27:31.628Z,2.22
2023-02-05T14:30:49.908Z,2.08
2023-02-05T14:33:49.305Z,1.83
2023-02-05T14:36:27.603Z,2.20
2023-02-05T14:39:03.934Z,2.45
2023-02-05T14:42:01.296Z,2.00
2023-02-05T14:44:42.460Z,2.60
2023-02-05T14:47:34.034Z,2.30
2023-02-05T14:50:17.869Z,2.30
2023-02-05T14:53:01.878Z,2.58
2023-02-05T14:55:40.896Z,2.30
2023-02-05T14:58:51.738Z,2.33
2023-02-05T15:01:31.099Z,2.00
2023-02-05T15:04:01.286Z,2.00
2023-02-05T15:09:39.641Z,2.10
2023-02-05T15:12:31.566Z,2.20
2023-02-05T15:15:06.683Z,2.17
2023-02-05T15:17:47.297Z,1.90
2023-02-05T15:20:28.292Z,1.80
2023-02-05T15:23:11.804Z,2.30
2023-02-05T15:26:08.703Z,2.10
2023-02-05T15:29:11.782Z,2.70
2023-02-05T15:31:56.157Z,2.75
2023-02-05T15:34:40.280Z,2.47
2023-02-05T15:40:09.935Z,2.30
2023-02-05T15:42:55.814Z,2.40
2023-02-05T15:45:34.935Z,2.50
2023-02-05T15:48:12.246Z,2.20
2023-02-05T15:51:16.366Z,2.65
2023-02-05T15:53:51.657Z,2.85
2023-02-05T15:57:07.252Z,2.67
2023-02-05T15:59:40.902Z,2.72
2023-02-05T16:05:32.333Z,2.83
2023-02-05T16:08:03.383Z,3.15
2023-02-05T16:10:35.048Z,2.33
2023-02-05T16:13:35.198Z,2.90
2023-02-05T16:16:29.639Z,2.90
2023-02-05T16:19:16.676Z,4.15
2023-02-05T16:22:14.734Z,3.58
2023-02-05T16:25:04.780Z,4.10
2023-02-05T16:27:49.338Z,4.22
2023-02-05T16:30:59.168Z,3.88
2023-02-05T16:33:43.416Z,3.72
2023-02-05T16:36:25.235Z,3.70
2023-02-05T16:38:58.355Z,3.17
2023-02-05T16:41:37.617Z,3.67
2023-02-05T16:44:36.781Z,3.28
2023-02-05T16:47:34.476Z,3.17
2023-02-05T16:50:42.950Z,2.88
2023-02-05T16:53:42.240Z,3.10
2023-02-05T16:56:22.951Z,2.80
2023-02-05T16:59:21.766Z,3.00
2023-02-05T17:01:49.583Z,3.10
2023-02-05T17:05:01.593Z,2.90
2023-02-05T17:07:42.349Z,3.03
2023-02-05T17:10:15.996Z,2.97
2023-02-05T17:12:53.093Z,2.90
2023-02-05T17:15:50.083Z,3.10
2023-02-05T17:18:26.325Z,2.88
2023-02-05T17:21:29.061Z,2.83
2023-02-05T17:24:10.584Z,2.88
2023-02-05T17:29:23.673Z,2.88
2023-02-05T17:31:53.582Z,2.95
2023-02-05T17:34:20.469Z,2.95
2023-02-05T17:37:11.935Z,3.10
2023-02-05T17:39:57.310Z,3.03
2023-02-05T17:42:31.556Z,3.60
2023-02-05T17:45:04.267Z,3.63
2023-02-05T17:47:36.226Z,2.85
2023-02-05T17:50:05.040Z,3.60
2023-02-05T17:55:19.804Z,3.60
2023-02-05T17:57:54.589Z,3.40
2023-02-05T18:00:24.821Z,3.80
2023-02-05T18:03:04.027Z,3.15
2023-02-05T18:05:30.898Z,3.78
2023-02-05T18:07:58.919Z,3.33
2023-02-05T18:10:35.426Z,3.38
2023-02-05T18:13:08.430Z,2.97
2023-02-05T18:16:02.690Z,3.10
2023-02-05T18:18:41.618Z,2.72
2023-02-05T18:21:08.540Z,3.03
2023-02-05T18:23:39.765Z,3.10
2023-02-05T18:26:08.956Z,3.30
2023-02-05T18:28:54.502Z,3.17
2023-02-05T18:31:27.593Z,2.72
2023-02-05T18:34:08.867Z,3.35
2023-02-05T18:36:35.696Z,3.08
2023-02-05T18:39:05.828Z,2.80
2023-02-05T18:41:35.430Z,3.35
2023-02-05T18:44:02.444Z,4.22
2023-02-05T18:46:38.516Z,3.80
2023-02-05T18:49:13.094Z,3.80
2023-02-05T18:51:43.248Z,3.72
2023-02-05T18:54:11.572Z,3.13
2023-02-05T18:56:38.747Z,3.30
2023-02-05T18:59:14.477Z,3.20
2023-02-05T19:01:42.547Z,2.97
2023-02-05T19:04:16.066Z,2.90
2023-02-05T19:06:55.328Z,3.17
2023-02-05T19:09:31.709Z,3.30
2023-02-05T19:12:01.784Z,3.75
2023-02-05T19:14:28.754Z,4.20
2023-02-05T19:16:58.558Z,4.10
2023-02-05T19:19:27.003Z,4.40
2023-02-05T19:22:00.672Z,4.05
2023-02-05T19:24:28.822Z,3.80
2023-02-05T19:26:59.197Z,3.67
2023-02-05T19:29:27.352Z,3.80
2023-02-05T19:31:57.590Z,3.80
2023-02-05T19:34:28.075Z,3.78
2023-02-05T19:36:54.935Z,3.67
2023-02-05T19:39:22.092Z,3.65
2023-02-05T19:41:58.280Z,4.45
2023-02-05T19:44:36.869Z,3.20
2023-02-05T19:47:15.035Z,3.65
2023-02-05T19:49:43.719Z,4.00
2023-02-05T19:52:16.337Z,3.83
2023-02-05T19:59:58.054Z,3.92
2023-02-05T20:02:35.567Z,4.30
2023-02-05T20:05:04.221Z,4.95
2023-02-05T20:07:38.684Z,4.40
2023-02-05T20:10:09.454Z,4.20
2023-02-05T20:12:39.058Z,3.70
2023-02-05T20:15:06.820Z,4.38
2023-02-05T20:17:35.316Z,5.40
2023-02-05T20:20:22.267Z,5.38
2023-02-05T20:25:28.442Z,4.78
2023-02-05T20:27:56.923Z,5.35
2023-02-05T20:30:42.790Z,4.75
2023-02-05T20:33:12.330Z,5.40
2023-02-05T20:35:39.623Z,5.85
2023-02-05T20:38:10.093Z,4.05
2023-02-05T20:40:37.139Z,5.38
2023-02-05T20:43:07.318Z,4.32
2023-02-05T20:45:34.602Z,5.38
2023-02-05T20:48:02.872Z,4.72
2023-02-05T20:50:29.861Z,5.13
2023-02-05T20:52:56.978Z,4.53
2023-02-05T20:55:24.930Z,5.10
2023-02-05T20:57:51.800Z,5.68
2023-02-05T21:00:21.305Z,5.05
2023-02-05T21:02:50.444Z,5.07
2023-02-05T21:05:20.070Z,5.88
2023-02-05T21:08:02.111Z,5.80
2023-02-05T21:10:36.296Z,4.93
2023-02-05T21:13:09.391Z,5.53
2023-02-05T21:15:56.709Z,6.00
2023-02-05T21:18:27.143Z,6.00
2023-02-05T21:20:54.796Z,6.03
2023-02-05T21:23:21.977Z,4.95
2023-02-05T21:25:48.960Z,5.22
2023-02-05T21:28:18.714Z,6.15
2023-02-05T21:30:51.262Z,5.25
2023-02-05T21:33:18.553Z,5.78
2023-02-05T21:36:00.528Z,4.85
2023-02-05T21:38:35.564Z,5.30
2023-02-05T21:41:26.813Z,5.95
2023-02-05T21:43:56.020Z,5.40
2023-02-05T21:46:30.170Z,5.63
2023-02-05T21:49:01.875Z,5.75
2023-02-05T21:51:33.340Z,6.53
2023-02-05T21:56:48.502Z,7.22
2023-02-05T21:59:29.673Z,6.35
2023-02-05T22:01:56.500Z,7.40
2023-02-05T22:04:28.364Z,7.82
2023-02-05T22:06:58.693Z,7.20
2023-02-05T22:09:26.362Z,7.47
2023-02-05T22:12:05.971Z,7.18
2023-02-05T22:14:36.485Z,6.80
2023-02-05T22:17:07.425Z,7.63
2023-02-05T22:19:34.418Z,6.97
2023-02-05T22:22:30.784Z,7.25
2023-02-05T22:25:04.328Z,6.57
2023-02-05T22:27:40.073Z,6.90
2023-02-05T22:30:09.869Z,6.80
2023-02-05T22:32:36.935Z,6.82
2023-02-05T22:35:04.977Z,7.68
2023-02-05T22:37:50.247Z,7.50
2023-02-05T22:40:55.316Z,6.88
2023-02-05T22:44:03.064Z,7.38
2023-02-05T22:46:32.469Z,7.53
2023-02-05T22:52:29.602Z,6.80
2023-02-05T22:55:05.079Z,8.27
2023-02-05T22:57:50.849Z,7.82
2023-02-05T23:00:23.822Z,8.15
2023-02-05T23:02:51.091Z,7.45
2023-02-05T23:05:29.100Z,7.50
2023-02-05T23:08:10.428Z,7.45
2023-02-05T23:10:40.347Z,7.22
2023-02-05T23:13:07.688Z,12.02
2023-02-05T23:15:36.770Z,8.30
2023-02-05T23:18:13.075Z,8.93
2023-02-05T23:20:44.726Z,9.35
2023-02-05T23:23:11.684Z,8.60
2023-02-05T23:25:55.780Z,10.68
2023-02-05T23:28:43.898Z,9.95
2023-02-05T23:31:58.920Z,9.60
2023-02-05T23:34:38.136Z,9.48
2023-02-05T23:37:23.533Z,9.60
2023-02-05T23:40:29.097Z,8.52
2023-02-05T23:42:57.734Z,8.10
2023-02-05T23:45:25.064Z,8.18
2023-02-05T23:48:01.883Z,9.30
2023-02-05T23:50:37.962Z,8.52
2023-02-05T23:53:05.321Z,8.77
2023-02-05T23:55:32.412Z,8.23
2023-02-05T23:58:25.087Z,8.65
